sensor_id;sensor_type;location;lat;lon;timestamp;P1;durP1;ratioP1;P2;durP2;ratioP2
25349;SDS011;13302;48.796;11.978;2023-10-31T00:02:13;1.10;;;1.10;;
25349;SDS011;13302;48.796;11.978;2023-10-31T00:05:00;1.33;;;1.00;;
25349;SDS011;13302;48.796;11.978;2023-10-31T00:07:48;1.63;;;1.37;;
25349;SDS011;13302;48.796;11.978;2023-10-31T00:10:35;1.30;;;1.30;;
25349;SDS011;13302;48.796;11.978;2023-10-31T00:13:22;1.70;;;1.60;;
25349;SDS011;13302;48.796;11.978;2023-10-31T00:16:09;1.70;;;1.60;;
25349;SDS011;13302;48.796;11.978;2023-10-31T00:18:57;1.50;;;1.50;;
25349;SDS011;13302;48.796;11.978;2023-10-31T00:21:44;1.80;;;1.80;;
25349;SDS011;13302;48.796;11.978;2023-10-31T00:24:31;2.23;;;2.13;;
25349;SDS011;13302;48.796;11.978;2023-10-31T00:27:19;2.30;;;1.80;;
25349;SDS011;13302;48.796;11.978;2023-10-31T00:30:06;1.97;;;1.87;;
25349;SDS011;13302;48.796;11.978;2023-10-31T00:32:53;1.73;;;1.63;;
25349;SDS011;13302;48.796;11.978;2023-10-31T00:35:40;1.67;;;1.57;;
25349;SDS011;13302;48.796;11.978;2023-10-31T00:38:28;1.60;;;1.50;;
25349;SDS011;13302;48.796;11.978;2023-10-31T00:41:15;1.37;;;1.30;;
25349;SDS011;13302;48.796;11.978;2023-10-31T00:44:02;1.90;;;1.73;;
25349;SDS011;13302;48.796;11.978;2023-10-31T00:46:50;1.60;;;1.50;;
25349;SDS011;13302;48.796;11.978;2023-10-31T00:49:37;1.43;;;1.43;;
25349;SDS011;13302;48.796;11.978;2023-10-31T00:52:24;1.53;;;1.50;;
25349;SDS011;13302;48.796;11.978;2023-10-31T00:55:11;1.10;;;1.10;;
25349;SDS011;13302;48.796;11.978;2023-10-31T00:57:58;1.03;;;1.03;;
25349;SDS011;13302;48.796;11.978;2023-10-31T01:00:45;0.80;;;0.80;;
25349;SDS011;13302;48.796;11.978;2023-10-31T01:03:32;0.90;;;0.90;;
25349;SDS011;13302;48.796;11.978;2023-10-31T01:06:20;0.80;;;0.80;;
25349;SDS011;13302;48.796;11.978;2023-10-31T01:09:07;0.90;;;0.87;;
25349;SDS011;13302;48.796;11.978;2023-10-31T01:11:54;1.73;;;0.83;;
25349;SDS011;13302;48.796;11.978;2023-10-31T01:14:41;0.80;;;0.80;;
25349;SDS011;13302;48.796;11.978;2023-10-31T01:17:28;0.53;;;0.47;;
25349;SDS011;13302;48.796;11.978;2023-10-31T01:20:15;0.90;;;0.90;;
25349;SDS011;13302;48.796;11.978;2023-10-31T01:23:03;0.73;;;0.73;;
25349;SDS011;13302;48.796;11.978;2023-10-31T01:25:50;0.70;;;0.70;;
25349;SDS011;13302;48.796;11.978;2023-10-31T01:28:37;0.67;;;0.60;;
25349;SDS011;13302;48.796;11.978;2023-10-31T01:31:25;0.60;;;0.60;;
25349;SDS011;13302;48.796;11.978;2023-10-31T01:34:12;0.70;;;0.70;;
25349;SDS011;13302;48.796;11.978;2023-10-31T01:36:59;0.60;;;0.60;;
25349;SDS011;13302;48.796;11.978;2023-10-31T01:39:46;1.00;;;0.50;;
25349;SDS011;13302;48.796;11.978;2023-10-31T01:42:34;0.50;;;0.50;;
25349;SDS011;13302;48.796;11.978;2023-10-31T01:45:21;1.10;;;0.60;;
25349;SDS011;13302;48.796;11.978;2023-10-31T01:48:08;0.70;;;0.70;;
25349;SDS011;13302;48.796;11.978;2023-10-31T01:50:55;0.40;;;0.40;;
25349;SDS011;13302;48.796;11.978;2023-10-31T01:53:44;0.40;;;0.40;;
25349;SDS011;13302;48.796;11.978;2023-10-31T01:56:31;0.60;;;0.60;;
25349;SDS011;13302;48.796;11.978;2023-10-31T01:59:18;0.60;;;0.60;;
25349;SDS011;13302;48.796;11.978;2023-10-31T02:02:05;1.07;;;0.57;;
25349;SDS011;13302;48.796;11.978;2023-10-31T02:04:53;0.60;;;0.60;;
25349;SDS011;13302;48.796;11.978;2023-10-31T02:07:44;0.63;;;0.63;;
25349;SDS011;13302;48.796;11.978;2023-10-31T02:10:32;0.70;;;0.70;;
25349;SDS011;13302;48.796;11.978;2023-10-31T02:13:19;1.07;;;0.70;;
25349;SDS011;13302;48.796;11.978;2023-10-31T02:16:06;0.90;;;0.90;;
25349;SDS011;13302;48.796;11.978;2023-10-31T02:18:54;0.50;;;0.50;;
25349;SDS011;13302;48.796;11.978;2023-10-31T02:21:41;0.70;;;0.70;;
25349;SDS011;13302;48.796;11.978;2023-10-31T02:24:28;0.80;;;0.80;;
25349;SDS011;13302;48.796;11.978;2023-10-31T02:27:15;0.70;;;0.70;;
25349;SDS011;13302;48.796;11.978;2023-10-31T02:30:03;0.67;;;0.67;;
25349;SDS011;13302;48.796;11.978;2023-10-31T02:32:50;0.80;;;0.80;;
25349;SDS011;13302;48.796;11.978;2023-10-31T02:35:37;0.70;;;0.70;;
25349;SDS011;13302;48.796;11.978;2023-10-31T02:38:25;0.70;;;0.70;;
25349;SDS011;13302;48.796;11.978;2023-10-31T02:41:13;0.83;;;0.83;;
25349;SDS011;13302;48.796;11.978;2023-10-31T02:44:00;0.80;;;0.80;;
25349;SDS011;13302;48.796;11.978;2023-10-31T02:46:47;0.90;;;0.90;;
25349;SDS011;13302;48.796;11.978;2023-10-31T02:49:35;0.70;;;0.70;;
25349;SDS011;13302;48.796;11.978;2023-10-31T02:52:22;0.73;;;0.73;;
25349;SDS011;13302;48.796;11.978;2023-10-31T02:55:09;1.20;;;0.80;;
25349;SDS011;13302;48.796;11.978;2023-10-31T02:57:56;0.70;;;0.70;;
25349;SDS011;13302;48.796;11.978;2023-10-31T03:00:43;0.70;;;0.70;;
25349;SDS011;13302;48.796;11.978;2023-10-31T03:03:30;0.60;;;0.60;;
25349;SDS011;13302;48.796;11.978;2023-10-31T03:06:17;0.60;;;0.60;;
25349;SDS011;13302;48.796;11.978;2023-10-31T03:09:05;0.60;;;0.60;;
25349;SDS011;13302;48.796;11.978;2023-10-31T03:11:53;1.07;;;0.87;;
25349;SDS011;13302;48.796;11.978;2023-10-31T03:14:40;0.63;;;0.63;;
25349;SDS011;13302;48.796;11.978;2023-10-31T03:17:27;0.70;;;0.70;;
25349;SDS011;13302;48.796;11.978;2023-10-31T03:20:15;0.70;;;0.70;;
25349;SDS011;13302;48.796;11.978;2023-10-31T03:23:02;0.60;;;0.60;;
25349;SDS011;13302;48.796;11.978;2023-10-31T03:25:49;0.50;;;0.50;;
25349;SDS011;13302;48.796;11.978;2023-10-31T03:28:38;0.53;;;0.53;;
25349;SDS011;13302;48.796;11.978;2023-10-31T03:31:25;0.60;;;0.60;;
25349;SDS011;13302;48.796;11.978;2023-10-31T03:34:12;0.50;;;0.50;;
25349;SDS011;13302;48.796;11.978;2023-10-31T03:37:00;0.67;;;0.67;;
25349;SDS011;13302;48.796;11.978;2023-10-31T03:39:47;0.60;;;0.50;;
25349;SDS011;13302;48.796;11.978;2023-10-31T03:42:34;0.50;;;0.50;;
25349;SDS011;13302;48.796;11.978;2023-10-31T03:45:21;0.73;;;0.37;;
25349;SDS011;13302;48.796;11.978;2023-10-31T03:48:09;0.47;;;0.47;;
25349;SDS011;13302;48.796;11.978;2023-10-31T03:50:56;0.63;;;0.63;;
25349;SDS011;13302;48.796;11.978;2023-10-31T03:53:43;0.60;;;0.60;;
25349;SDS011;13302;48.796;11.978;2023-10-31T03:56:30;0.47;;;0.47;;
25349;SDS011;13302;48.796;11.978;2023-10-31T03:59:17;0.50;;;0.50;;
25349;SDS011;13302;48.796;11.978;2023-10-31T04:02:04;0.50;;;0.50;;
25349;SDS011;13302;48.796;11.978;2023-10-31T04:04:51;0.50;;;0.50;;
25349;SDS011;13302;48.796;11.978;2023-10-31T04:07:38;0.30;;;0.30;;
25349;SDS011;13302;48.796;11.978;2023-10-31T04:10:26;0.50;;;0.50;;
25349;SDS011;13302;48.796;11.978;2023-10-31T04:13:13;0.40;;;0.40;;
25349;SDS011;13302;48.796;11.978;2023-10-31T04:16:00;0.50;;;0.50;;
25349;SDS011;13302;48.796;11.978;2023-10-31T04:18:47;0.60;;;0.43;;
25349;SDS011;13302;48.796;11.978;2023-10-31T04:21:34;0.43;;;0.43;;
25349;SDS011;13302;48.796;11.978;2023-10-31T04:24:21;2.10;;;0.70;;
25349;SDS011;13302;48.796;11.978;2023-10-31T04:27:09;0.50;;;0.50;;
25349;SDS011;13302;48.796;11.978;2023-10-31T04:29:56;0.50;;;0.50;;
25349;SDS011;13302;48.796;11.978;2023-10-31T04:32:45;1.47;;;0.43;;
25349;SDS011;13302;48.796;11.978;2023-10-31T04:35:32;1.27;;;0.40;;
25349;SDS011;13302;48.796;11.978;2023-10-31T04:38:19;0.30;;;0.30;;
25349;SDS011;13302;48.796;11.978;2023-10-31T04:41:07;0.43;;;0.43;;
25349;SDS011;13302;48.796;11.978;2023-10-31T04:43:56;0.40;;;0.40;;
25349;SDS011;13302;48.796;11.978;2023-10-31T04:46:43;0.50;;;0.50;;
25349;SDS011;13302;48.796;11.978;2023-10-31T04:49:30;0.30;;;0.30;;
25349;SDS011;13302;48.796;11.978;2023-10-31T04:52:17;0.30;;;0.30;;
25349;SDS011;13302;48.796;11.978;2023-10-31T04:55:06;0.73;;;0.40;;
25349;SDS011;13302;48.796;11.978;2023-10-31T04:57:53;0.30;;;0.30;;
25349;SDS011;13302;48.796;11.978;2023-10-31T05:00:40;0.40;;;0.40;;
25349;SDS011;13302;48.796;11.978;2023-10-31T05:03:28;0.40;;;0.37;;
25349;SDS011;13302;48.796;11.978;2023-10-31T05:06:19;0.40;;;0.40;;
25349;SDS011;13302;48.796;11.978;2023-10-31T05:09:07;0.40;;;0.40;;
25349;SDS011;13302;48.796;11.978;2023-10-31T05:11:55;0.30;;;0.30;;
25349;SDS011;13302;48.796;11.978;2023-10-31T05:14:42;0.30;;;0.30;;
25349;SDS011;13302;48.796;11.978;2023-10-31T05:17:29;0.47;;;0.40;;
25349;SDS011;13302;48.796;11.978;2023-10-31T05:20:16;0.30;;;0.30;;
25349;SDS011;13302;48.796;11.978;2023-10-31T05:23:03;0.40;;;0.40;;
25349;SDS011;13302;48.796;11.978;2023-10-31T05:25:51;0.40;;;0.40;;
25349;SDS011;13302;48.796;11.978;2023-10-31T05:28:38;0.47;;;0.40;;
25349;SDS011;13302;48.796;11.978;2023-10-31T05:31:25;0.40;;;0.40;;
25349;SDS011;13302;48.796;11.978;2023-10-31T05:34:12;0.30;;;0.30;;
25349;SDS011;13302;48.796;11.978;2023-10-31T05:36:59;0.30;;;0.30;;
25349;SDS011;13302;48.796;11.978;2023-10-31T05:39:46;0.50;;;0.50;;
25349;SDS011;13302;48.796;11.978;2023-10-31T05:42:33;0.20;;;0.20;;
25349;SDS011;13302;48.796;11.978;2023-10-31T05:45:21;0.83;;;0.40;;
25349;SDS011;13302;48.796;11.978;2023-10-31T05:48:08;1.93;;;0.40;;
25349;SDS011;13302;48.796;11.978;2023-10-31T05:50:55;0.40;;;0.40;;
25349;SDS011;13302;48.796;11.978;2023-10-31T05:53:43;0.40;;;0.40;;
25349;SDS011;13302;48.796;11.978;2023-10-31T05:56:31;0.60;;;0.40;;
25349;SDS011;13302;48.796;11.978;2023-10-31T05:59:18;0.40;;;0.40;;
25349;SDS011;13302;48.796;11.978;2023-10-31T06:02:06;0.40;;;0.40;;
25349;SDS011;13302;48.796;11.978;2023-10-31T06:04:53;0.60;;;0.60;;
25349;SDS011;13302;48.796;11.978;2023-10-31T06:07:40;0.40;;;0.40;;
25349;SDS011;13302;48.796;11.978;2023-10-31T06:10:28;0.40;;;0.40;;
25349;SDS011;13302;48.796;11.978;2023-10-31T06:13:15;0.50;;;0.50;;
25349;SDS011;13302;48.796;11.978;2023-10-31T06:16:02;0.50;;;0.50;;
25349;SDS011;13302;48.796;11.978;2023-10-31T06:18:49;1.27;;;0.50;;
25349;SDS011;13302;48.796;11.978;2023-10-31T06:21:36;0.30;;;0.30;;
25349;SDS011;13302;48.796;11.978;2023-10-31T06:24:24;0.60;;;0.53;;
25349;SDS011;13302;48.796;11.978;2023-10-31T06:27:11;0.57;;;0.30;;
25349;SDS011;13302;48.796;11.978;2023-10-31T06:29:58;0.37;;;0.37;;
25349;SDS011;13302;48.796;11.978;2023-10-31T06:33:05;1.03;;;0.30;;
25349;SDS011;13302;48.796;11.978;2023-10-31T06:35:54;1.10;;;0.30;;
25349;SDS011;13302;48.796;11.978;2023-10-31T06:38:41;0.40;;;0.40;;
25349;SDS011;13302;48.796;11.978;2023-10-31T06:41:28;0.50;;;0.50;;
25349;SDS011;13302;48.796;11.978;2023-10-31T06:44:15;0.97;;;0.40;;
25349;SDS011;13302;48.796;11.978;2023-10-31T06:47:02;1.27;;;0.43;;
25349;SDS011;13302;48.796;11.978;2023-10-31T06:49:50;0.30;;;0.30;;
25349;SDS011;13302;48.796;11.978;2023-10-31T06:52:37;1.57;;;0.43;;
25349;SDS011;13302;48.796;11.978;2023-10-31T06:55:24;0.40;;;0.40;;
25349;SDS011;13302;48.796;11.978;2023-10-31T06:58:11;3.60;;;0.50;;
25349;SDS011;13302;48.796;11.978;2023-10-31T07:00:58;0.47;;;0.47;;
25349;SDS011;13302;48.796;11.978;2023-10-31T07:03:46;0.40;;;0.40;;
25349;SDS011;13302;48.796;11.978;2023-10-31T07:06:34;0.70;;;0.70;;
25349;SDS011;13302;48.796;11.978;2023-10-31T07:09:21;2.37;;;0.63;;
25349;SDS011;13302;48.796;11.978;2023-10-31T07:12:08;0.97;;;0.60;;
25349;SDS011;13302;48.796;11.978;2023-10-31T07:14:55;0.40;;;0.40;;
25349;SDS011;13302;48.796;11.978;2023-10-31T07:17:45;0.50;;;0.50;;
25349;SDS011;13302;48.796;11.978;2023-10-31T07:20:32;0.40;;;0.40;;
25349;SDS011;13302;48.796;11.978;2023-10-31T07:23:19;0.50;;;0.50;;
25349;SDS011;13302;48.796;11.978;2023-10-31T07:26:06;0.60;;;0.60;;
25349;SDS011;13302;48.796;11.978;2023-10-31T07:28:53;0.50;;;0.50;;
25349;SDS011;13302;48.796;11.978;2023-10-31T07:31:41;0.50;;;0.50;;
25349;SDS011;13302;48.796;11.978;2023-10-31T07:34:28;0.50;;;0.50;;
25349;SDS011;13302;48.796;11.978;2023-10-31T07:37:16;0.50;;;0.50;;
25349;SDS011;13302;48.796;11.978;2023-10-31T07:40:03;0.40;;;0.40;;
25349;SDS011;13302;48.796;11.978;2023-10-31T07:42:51;0.60;;;0.60;;
25349;SDS011;13302;48.796;11.978;2023-10-31T07:45:38;0.40;;;0.40;;
25349;SDS011;13302;48.796;11.978;2023-10-31T07:48:25;0.77;;;0.53;;
25349;SDS011;13302;48.796;11.978;2023-10-31T07:51:12;1.37;;;0.50;;
25349;SDS011;13302;48.796;11.978;2023-10-31T07:53:59;0.50;;;0.50;;
25349;SDS011;13302;48.796;11.978;2023-10-31T07:56:46;0.57;;;0.57;;
25349;SDS011;13302;48.796;11.978;2023-10-31T07:59:34;0.60;;;0.60;;
25349;SDS011;13302;48.796;11.978;2023-10-31T08:02:21;0.63;;;0.60;;
25349;SDS011;13302;48.796;11.978;2023-10-31T08:05:09;0.60;;;0.60;;
25349;SDS011;13302;48.796;11.978;2023-10-31T08:07:57;0.60;;;0.60;;
25349;SDS011;13302;48.796;11.978;2023-10-31T08:10:45;0.60;;;0.60;;
25349;SDS011;13302;48.796;11.978;2023-10-31T08:13:32;0.40;;;0.40;;
25349;SDS011;13302;48.796;11.978;2023-10-31T08:16:19;0.60;;;0.60;;
25349;SDS011;13302;48.796;11.978;2023-10-31T08:19:07;0.50;;;0.50;;
25349;SDS011;13302;48.796;11.978;2023-10-31T08:21:54;2.00;;;0.60;;
25349;SDS011;13302;48.796;11.978;2023-10-31T08:24:43;0.60;;;0.60;;
25349;SDS011;13302;48.796;11.978;2023-10-31T08:27:30;0.60;;;0.60;;
25349;SDS011;13302;48.796;11.978;2023-10-31T08:30:18;0.50;;;0.50;;
25349;SDS011;13302;48.796;11.978;2023-10-31T08:33:05;1.90;;;0.80;;
25349;SDS011;13302;48.796;11.978;2023-10-31T08:35:57;0.73;;;0.70;;
25349;SDS011;13302;48.796;11.978;2023-10-31T08:38:44;0.60;;;0.60;;
25349;SDS011;13302;48.796;11.978;2023-10-31T08:41:31;0.63;;;0.63;;
25349;SDS011;13302;48.796;11.978;2023-10-31T08:44:18;0.60;;;0.60;;
25349;SDS011;13302;48.796;11.978;2023-10-31T08:47:05;0.70;;;0.70;;
25349;SDS011;13302;48.796;11.978;2023-10-31T08:49:53;0.40;;;0.40;;
25349;SDS011;13302;48.796;11.978;2023-10-31T08:52:41;0.60;;;0.60;;
25349;SDS011;13302;48.796;11.978;2023-10-31T08:55:28;0.80;;;0.80;;
25349;SDS011;13302;48.796;11.978;2023-10-31T08:58:15;0.77;;;0.77;;
25349;SDS011;13302;48.796;11.978;2023-10-31T09:01:04;0.67;;;0.67;;
25349;SDS011;13302;48.796;11.978;2023-10-31T09:03:51;0.83;;;0.83;;
25349;SDS011;13302;48.796;11.978;2023-10-31T09:06:38;0.90;;;0.90;;
25349;SDS011;13302;48.796;11.978;2023-10-31T09:09:25;0.67;;;0.67;;
25349;SDS011;13302;48.796;11.978;2023-10-31T09:12:13;0.87;;;0.50;;
25349;SDS011;13302;48.796;11.978;2023-10-31T09:15:00;0.73;;;0.60;;
25349;SDS011;13302;48.796;11.978;2023-10-31T09:17:48;0.87;;;0.50;;
25349;SDS011;13302;48.796;11.978;2023-10-31T09:20:37;1.50;;;0.50;;
25349;SDS011;13302;48.796;11.978;2023-10-31T09:23:24;1.20;;;0.50;;
25349;SDS011;13302;48.796;11.978;2023-10-31T09:26:11;0.40;;;0.40;;
25349;SDS011;13302;48.796;11.978;2023-10-31T09:28:58;0.40;;;0.40;;
25349;SDS011;13302;48.796;11.978;2023-10-31T09:31:45;0.30;;;0.30;;
25349;SDS011;13302;48.796;11.978;2023-10-31T09:34:33;0.63;;;0.30;;
25349;SDS011;13302;48.796;11.978;2023-10-31T09:37:21;1.80;;;0.40;;
25349;SDS011;13302;48.796;11.978;2023-10-31T09:40:08;0.30;;;0.30;;
25349;SDS011;13302;48.796;11.978;2023-10-31T09:42:56;0.40;;;0.40;;
25349;SDS011;13302;48.796;11.978;2023-10-31T09:45:44;0.40;;;0.40;;
25349;SDS011;13302;48.796;11.978;2023-10-31T09:48:32;0.40;;;0.40;;
25349;SDS011;13302;48.796;11.978;2023-10-31T09:51:19;0.30;;;0.30;;
25349;SDS011;13302;48.796;11.978;2023-10-31T09:54:07;0.73;;;0.30;;
25349;SDS011;13302;48.796;11.978;2023-10-31T09:56:55;0.70;;;0.50;;
25349;SDS011;13302;48.796;11.978;2023-10-31T09:59:43;0.37;;;0.37;;
25349;SDS011;13302;48.796;11.978;2023-10-31T10:02:30;0.40;;;0.40;;
25349;SDS011;13302;48.796;11.978;2023-10-31T10:05:18;1.60;;;0.60;;
25349;SDS011;13302;48.796;11.978;2023-10-31T10:08:06;0.57;;;0.37;;
25349;SDS011;13302;48.796;11.978;2023-10-31T10:10:54;2.53;;;0.40;;
25349;SDS011;13302;48.796;11.978;2023-10-31T10:13:41;0.40;;;0.40;;
25349;SDS011;13302;48.796;11.978;2023-10-31T10:16:32;1.13;;;0.50;;
25349;SDS011;13302;48.796;11.978;2023-10-31T10:19:20;0.43;;;0.43;;
25349;SDS011;13302;48.796;11.978;2023-10-31T10:22:08;0.57;;;0.57;;
25349;SDS011;13302;48.796;11.978;2023-10-31T10:24:56;0.40;;;0.40;;
25349;SDS011;13302;48.796;11.978;2023-10-31T10:27:44;0.60;;;0.50;;
25349;SDS011;13302;48.796;11.978;2023-10-31T10:30:32;0.50;;;0.50;;
25349;SDS011;13302;48.796;11.978;2023-10-31T10:33:22;0.50;;;0.40;;
25349;SDS011;13302;48.796;11.978;2023-10-31T10:36:10;0.93;;;0.40;;
25349;SDS011;13302;48.796;11.978;2023-10-31T10:38:57;0.30;;;0.30;;
25349;SDS011;13302;48.796;11.978;2023-10-31T10:41:44;0.30;;;0.30;;
25349;SDS011;13302;48.796;11.978;2023-10-31T10:44:34;0.40;;;0.40;;
25349;SDS011;13302;48.796;11.978;2023-10-31T10:47:22;1.13;;;0.40;;
25349;SDS011;13302;48.796;11.978;2023-10-31T10:50:09;0.50;;;0.50;;
25349;SDS011;13302;48.796;11.978;2023-10-31T10:55:56;1.50;;;0.40;;
25349;SDS011;13302;48.796;11.978;2023-10-31T10:59:03;0.40;;;0.40;;
25349;SDS011;13302;48.796;11.978;2023-10-31T11:01:59;0.93;;;0.30;;
25349;SDS011;13302;48.796;11.978;2023-10-31T11:04:48;0.37;;;0.37;;
25349;SDS011;13302;48.796;11.978;2023-10-31T11:07:37;1.43;;;0.50;;
25349;SDS011;13302;48.796;11.978;2023-10-31T11:10:25;0.40;;;0.40;;
25349;SDS011;13302;48.796;11.978;2023-10-31T11:13:13;0.60;;;0.40;;
25349;SDS011;13302;48.796;11.978;2023-10-31T11:16:05;0.50;;;0.50;;
25349;SDS011;13302;48.796;11.978;2023-10-31T11:18:58;0.50;;;0.50;;
25349;SDS011;13302;48.796;11.978;2023-10-31T11:21:58;0.60;;;0.60;;
25349;SDS011;13302;48.796;11.978;2023-10-31T11:24:48;1.07;;;0.60;;
25349;SDS011;13302;48.796;11.978;2023-10-31T11:27:36;0.40;;;0.40;;
25349;SDS011;13302;48.796;11.978;2023-10-31T11:33:12;1.03;;;0.93;;
25349;SDS011;13302;48.796;11.978;2023-10-31T11:36:00;0.93;;;0.80;;
25349;SDS011;13302;48.796;11.978;2023-10-31T11:38:48;0.80;;;0.80;;
25349;SDS011;13302;48.796;11.978;2023-10-31T11:41:36;1.07;;;0.83;;
25349;SDS011;13302;48.796;11.978;2023-10-31T11:44:28;1.07;;;0.40;;
25349;SDS011;13302;48.796;11.978;2023-10-31T11:47:15;0.77;;;0.70;;
25349;SDS011;13302;48.796;11.978;2023-10-31T11:50:02;0.40;;;0.40;;
25349;SDS011;13302;48.796;11.978;2023-10-31T11:55:58;1.00;;;1.00;;
25349;SDS011;13302;48.796;11.978;2023-10-31T11:58:54;0.90;;;0.90;;
25349;SDS011;13302;48.796;11.978;2023-10-31T12:01:45;1.50;;;0.93;;
25349;SDS011;13302;48.796;11.978;2023-10-31T12:04:34;0.87;;;0.87;;
25349;SDS011;13302;48.796;11.978;2023-10-31T12:07:21;1.23;;;0.50;;
25349;SDS011;13302;48.796;11.978;2023-10-31T12:10:08;0.60;;;0.60;;
25349;SDS011;13302;48.796;11.978;2023-10-31T12:12:56;0.57;;;0.57;;
25349;SDS011;13302;48.796;11.978;2023-10-31T12:15:52;1.03;;;0.40;;
25349;SDS011;13302;48.796;11.978;2023-10-31T12:18:40;0.50;;;0.50;;
25349;SDS011;13302;48.796;11.978;2023-10-31T12:21:34;1.40;;;0.60;;
25349;SDS011;13302;48.796;11.978;2023-10-31T12:24:39;4.10;;;0.60;;
25349;SDS011;13302;48.796;11.978;2023-10-31T12:27:26;1.03;;;0.40;;
25349;SDS011;13302;48.796;11.978;2023-10-31T12:30:43;2.43;;;2.27;;
25349;SDS011;13302;48.796;11.978;2023-10-31T12:33:34;2.30;;;2.10;;
25349;SDS011;13302;48.796;11.978;2023-10-31T12:36:22;1.53;;;1.00;;
25349;SDS011;13302;48.796;11.978;2023-10-31T12:39:10;1.50;;;0.93;;
25349;SDS011;13302;48.796;11.978;2023-10-31T12:41:59;1.00;;;0.80;;
25349;SDS011;13302;48.796;11.978;2023-10-31T12:44:47;0.70;;;0.70;;
25349;SDS011;13302;48.796;11.978;2023-10-31T12:47:34;0.60;;;0.60;;
25349;SDS011;13302;48.796;11.978;2023-10-31T12:50:22;0.50;;;0.50;;
25349;SDS011;13302;48.796;11.978;2023-10-31T12:53:09;0.50;;;0.50;;
25349;SDS011;13302;48.796;11.978;2023-10-31T12:55:56;0.67;;;0.50;;
25349;SDS011;13302;48.796;11.978;2023-10-31T12:58:43;0.50;;;0.50;;
25349;SDS011;13302;48.796;11.978;2023-10-31T13:01:30;0.53;;;0.53;;
25349;SDS011;13302;48.796;11.978;2023-10-31T13:04:28;0.90;;;0.90;;
25349;SDS011;13302;48.796;11.978;2023-10-31T13:07:26;1.23;;;0.70;;
25349;SDS011;13302;48.796;11.978;2023-10-31T13:10:15;0.70;;;0.70;;
25349;SDS011;13302;48.796;11.978;2023-10-31T13:13:02;0.70;;;0.57;;
25349;SDS011;13302;48.796;11.978;2023-10-31T13:15:49;1.37;;;0.67;;
25349;SDS011;13302;48.796;11.978;2023-10-31T13:18:37;0.80;;;0.60;;
25349;SDS011;13302;48.796;11.978;2023-10-31T13:21:24;0.53;;;0.53;;
25349;SDS011;13302;48.796;11.978;2023-10-31T13:24:12;0.93;;;0.60;;
25349;SDS011;13302;48.796;11.978;2023-10-31T13:26:59;0.70;;;0.70;;
25349;SDS011;13302;48.796;11.978;2023-10-31T13:29:47;0.60;;;0.60;;
25349;SDS011;13302;48.796;11.978;2023-10-31T13:32:36;0.70;;;0.70;;
25349;SDS011;13302;48.796;11.978;2023-10-31T13:35:24;0.70;;;0.63;;
25349;SDS011;13302;48.796;11.978;2023-10-31T13:38:11;0.80;;;0.60;;
25349;SDS011;13302;48.796;11.978;2023-10-31T13:40:58;0.70;;;0.70;;
25349;SDS011;13302;48.796;11.978;2023-10-31T13:43:48;0.60;;;0.60;;
25349;SDS011;13302;48.796;11.978;2023-10-31T13:46:35;0.70;;;0.70;;
25349;SDS011;13302;48.796;11.978;2023-10-31T13:49:22;1.43;;;0.70;;
25349;SDS011;13302;48.796;11.978;2023-10-31T13:52:09;0.77;;;0.77;;
25349;SDS011;13302;48.796;11.978;2023-10-31T13:54:56;0.90;;;0.77;;
25349;SDS011;13302;48.796;11.978;2023-10-31T13:57:43;0.90;;;0.77;;
25349;SDS011;13302;48.796;11.978;2023-10-31T14:00:30;1.90;;;0.90;;
25349;SDS011;13302;48.796;11.978;2023-10-31T14:03:18;1.03;;;0.80;;
25349;SDS011;13302;48.796;11.978;2023-10-31T14:06:05;1.33;;;0.70;;
25349;SDS011;13302;48.796;11.978;2023-10-31T14:08:53;0.93;;;0.60;;
25349;SDS011;13302;48.796;11.978;2023-10-31T14:11:40;0.53;;;0.53;;
25349;SDS011;13302;48.796;11.978;2023-10-31T14:14:28;0.73;;;0.57;;
25349;SDS011;13302;48.796;11.978;2023-10-31T14:17:18;0.90;;;0.90;;
25349;SDS011;13302;48.796;11.978;2023-10-31T14:20:05;0.87;;;0.50;;
25349;SDS011;13302;48.796;11.978;2023-10-31T14:22:53;1.93;;;0.77;;
25349;SDS011;13302;48.796;11.978;2023-10-31T14:25:40;0.70;;;0.70;;
25349;SDS011;13302;48.796;11.978;2023-10-31T14:28:30;0.50;;;0.50;;
25349;SDS011;13302;48.796;11.978;2023-10-31T14:31:17;0.70;;;0.60;;
25349;SDS011;13302;48.796;11.978;2023-10-31T14:34:04;0.57;;;0.57;;
25349;SDS011;13302;48.796;11.978;2023-10-31T14:36:52;1.63;;;0.70;;
25349;SDS011;13302;48.796;11.978;2023-10-31T14:39:40;1.07;;;0.50;;
25349;SDS011;13302;48.796;11.978;2023-10-31T14:42:27;2.37;;;0.67;;
25349;SDS011;13302;48.796;11.978;2023-10-31T14:45:14;2.50;;;0.60;;
25349;SDS011;13302;48.796;11.978;2023-10-31T14:48:01;0.60;;;0.60;;
25349;SDS011;13302;48.796;11.978;2023-10-31T14:50:48;1.13;;;0.90;;
25349;SDS011;13302;48.796;11.978;2023-10-31T14:53:36;1.23;;;0.73;;
25349;SDS011;13302;48.796;11.978;2023-10-31T14:56:23;1.13;;;0.80;;
25349;SDS011;13302;48.796;11.978;2023-10-31T14:59:10;0.70;;;0.70;;
25349;SDS011;13302;48.796;11.978;2023-10-31T15:01:57;1.23;;;0.67;;
25349;SDS011;13302;48.796;11.978;2023-10-31T15:04:45;0.80;;;0.80;;
25349;SDS011;13302;48.796;11.978;2023-10-31T15:07:32;1.13;;;0.70;;
25349;SDS011;13302;48.796;11.978;2023-10-31T15:10:19;2.07;;;0.70;;
25349;SDS011;13302;48.796;11.978;2023-10-31T15:13:07;0.83;;;0.60;;
25349;SDS011;13302;48.796;11.978;2023-10-31T15:15:54;2.93;;;0.80;;
25349;SDS011;13302;48.796;11.978;2023-10-31T15:18:42;0.60;;;0.60;;
25349;SDS011;13302;48.796;11.978;2023-10-31T15:21:31;0.70;;;0.70;;
25349;SDS011;13302;48.796;11.978;2023-10-31T15:24:18;0.87;;;0.80;;
25349;SDS011;13302;48.796;11.978;2023-10-31T15:27:05;0.70;;;0.70;;
25349;SDS011;13302;48.796;11.978;2023-10-31T15:29:52;0.90;;;0.70;;
25349;SDS011;13302;48.796;11.978;2023-10-31T15:32:39;1.47;;;0.70;;
25349;SDS011;13302;48.796;11.978;2023-10-31T15:35:27;0.80;;;0.60;;
25349;SDS011;13302;48.796;11.978;2023-10-31T15:38:14;0.73;;;0.73;;
25349;SDS011;13302;48.796;11.978;2023-10-31T15:41:02;0.70;;;0.70;;
25349;SDS011;13302;48.796;11.978;2023-10-31T15:44:03;0.73;;;0.73;;
25349;SDS011;13302;48.796;11.978;2023-10-31T15:46:51;1.57;;;0.90;;
25349;SDS011;13302;48.796;11.978;2023-10-31T15:49:38;0.70;;;0.70;;
25349;SDS011;13302;48.796;11.978;2023-10-31T15:52:25;0.53;;;0.53;;
25349;SDS011;13302;48.796;11.978;2023-10-31T15:55:12;1.07;;;0.97;;
25349;SDS011;13302;48.796;11.978;2023-10-31T15:57:59;2.73;;;0.80;;
25349;SDS011;13302;48.796;11.978;2023-10-31T16:00:46;1.70;;;1.03;;
25349;SDS011;13302;48.796;11.978;2023-10-31T16:03:33;1.03;;;0.80;;
25349;SDS011;13302;48.796;11.978;2023-10-31T16:06:20;1.03;;;0.70;;
25349;SDS011;13302;48.796;11.978;2023-10-31T16:09:07;1.50;;;0.80;;
25349;SDS011;13302;48.796;11.978;2023-10-31T16:11:55;1.17;;;0.80;;
25349;SDS011;13302;48.796;11.978;2023-10-31T16:14:42;0.87;;;0.87;;
25349;SDS011;13302;48.796;11.978;2023-10-31T16:17:29;2.10;;;0.80;;
25349;SDS011;13302;48.796;11.978;2023-10-31T16:20:16;0.97;;;0.83;;
25349;SDS011;13302;48.796;11.978;2023-10-31T16:23:03;1.43;;;0.80;;
25349;SDS011;13302;48.796;11.978;2023-10-31T16:25:50;2.53;;;1.00;;
25349;SDS011;13302;48.796;11.978;2023-10-31T16:28:38;1.10;;;1.00;;
25349;SDS011;13302;48.796;11.978;2023-10-31T16:31:25;0.83;;;0.83;;
25349;SDS011;13302;48.796;11.978;2023-10-31T16:34:12;0.73;;;0.73;;
25349;SDS011;13302;48.796;11.978;2023-10-31T16:36:59;0.83;;;0.83;;
25349;SDS011;13302;48.796;11.978;2023-10-31T16:39:46;1.20;;;1.17;;
25349;SDS011;13302;48.796;11.978;2023-10-31T16:42:33;1.43;;;0.93;;
25349;SDS011;13302;48.796;11.978;2023-10-31T16:45:21;1.10;;;1.00;;